EWG40N LOWS-LIRP
Flight info
| Callsign | EWG40N |
|---|---|
| Flight time | 1h 7m |
| Altitude | 33000 |
| Route | DETSA DCT MOBDO/N0451F370 DCT GAVRA DCT KUGIX Y662 AKUTO L12 MAREL |
| Aircraft | A319/M-SDE3FGHIRWY/LB1 |
Departure
| Time | 2026-05-07 18:59 |
|---|---|
| Airport | Salzburg Airport (LOWS) |
Arrival
| Time | 2026-05-07 20:06 |
|---|---|
| Airport | Pisa International Airport (LIRP) |
| Time | Latitude | Longitude | Altitude | Speed | Heading |
|---|---|---|---|---|---|
| 2026-05-07 18:28 | 47.79090 | 12.99962 | 1420 ft | 0 kts | 282° |
| 2026-05-07 18:48 | 47.79088 | 12.99981 | 1420 ft | 4 kts | 282° |
| 2026-05-07 18:48 | 47.79083 | 13.00013 | 1420 ft | 4 kts | 274° |
| 2026-05-07 18:49 | 47.79088 | 13.00049 | 1420 ft | 4 kts | 220° |
| 2026-05-07 18:49 | 47.79108 | 13.00059 | 1420 ft | 2 kts | 157° |
| 2026-05-07 18:49 | 47.79109 | 13.00059 | 1420 ft | 0 kts | 156° |
| 2026-05-07 18:53 | 47.79107 | 13.00060 | 1420 ft | 1 kts | 156° |
| 2026-05-07 18:53 | 47.79095 | 13.00067 | 1420 ft | 0 kts | 156° |
| 2026-05-07 18:53 | 47.79087 | 13.00073 | 1420 ft | 2 kts | 156° |
| 2026-05-07 18:53 | 47.79066 | 13.00086 | 1420 ft | 3 kts | 156° |
| 2026-05-07 18:54 | 47.79051 | 13.00096 | 1420 ft | 2 kts | 156° |
| 2026-05-07 18:54 | 47.79040 | 13.00103 | 1420 ft | 2 kts | 156° |
| 2026-05-07 18:54 | 47.79016 | 13.00118 | 1420 ft | 5 kts | 156° |
| 2026-05-07 18:54 | 47.78972 | 13.00152 | 1420 ft | 9 kts | 139° |
| 2026-05-07 18:55 | 47.78954 | 13.00255 | 1420 ft | 10 kts | 92° |
| 2026-05-07 18:55 | 47.78948 | 13.00354 | 1422 ft | 9 kts | 110° |
| 2026-05-07 18:55 | 47.78897 | 13.00403 | 1420 ft | 10 kts | 158° |
| 2026-05-07 18:55 | 47.78824 | 13.00447 | 1420 ft | 13 kts | 158° |
| 2026-05-07 18:56 | 47.78719 | 13.00514 | 1420 ft | 21 kts | 156° |
| 2026-05-07 18:56 | 47.78566 | 13.00612 | 1420 ft | 26 kts | 156° |
| 2026-05-07 18:56 | 47.78440 | 13.00692 | 1420 ft | 16 kts | 156° |
| 2026-05-07 18:56 | 47.78331 | 13.00763 | 1420 ft | 18 kts | 156° |
| 2026-05-07 18:57 | 47.78218 | 13.00838 | 1420 ft | 14 kts | 144° |
| 2026-05-07 18:57 | 47.78185 | 13.00917 | 1423 ft | 9 kts | 106° |
| 2026-05-07 18:57 | 47.78191 | 13.01014 | 1422 ft | 10 kts | 71° |
| 2026-05-07 18:57 | 47.78216 | 13.01091 | 1418 ft | 7 kts | 50° |
| 2026-05-07 18:58 | 47.78237 | 13.01086 | 1419 ft | 0 kts | 337° |
| 2026-05-07 18:58 | 47.78333 | 13.01026 | 1420 ft | 51 kts | 337° |
| 2026-05-07 18:59 | 47.78920 | 13.00655 | 1420 ft | 130 kts | 337° |
| 2026-05-07 18:59 | 47.79912 | 13.00027 | 1718 ft | 162 kts | 337° |
| 2026-05-07 18:59 | 47.80942 | 12.99372 | 2575 ft | 160 kts | 338° |
| 2026-05-07 18:59 | 47.81945 | 12.98666 | 3487 ft | 160 kts | 325° |
| 2026-05-07 19:00 | 47.82740 | 12.97469 | 3933 ft | 173 kts | 302° |
| 2026-05-07 19:00 | 47.83381 | 12.95805 | 4297 ft | 197 kts | 299° |
| 2026-05-07 19:00 | 47.84108 | 12.93902 | 4798 ft | 224 kts | 299° |
| 2026-05-07 19:00 | 47.84923 | 12.91775 | 5350 ft | 249 kts | 299° |
| 2026-05-07 19:01 | 47.85808 | 12.89463 | 6093 ft | 263 kts | 299° |
| 2026-05-07 19:01 | 47.86725 | 12.87075 | 7045 ft | 267 kts | 299° |
| 2026-05-07 19:01 | 47.87654 | 12.84664 | 8065 ft | 270 kts | 298° |
| 2026-05-07 19:01 | 47.88592 | 12.82235 | 9054 ft | 272 kts | 298° |
| 2026-05-07 19:02 | 47.89455 | 12.79731 | 9983 ft | 273 kts | 289° |
| 2026-05-07 19:02 | 47.89854 | 12.76912 | 10521 ft | 289 kts | 272° |
| 2026-05-07 19:02 | 47.89592 | 12.73836 | 10789 ft | 313 kts | 252° |
| 2026-05-07 19:02 | 47.88386 | 12.71040 | 11214 ft | 331 kts | 228° |
| 2026-05-07 19:03 | 47.86648 | 12.68735 | 11927 ft | 338 kts | 219° |
| 2026-05-07 19:03 | 47.84658 | 12.66812 | 12691 ft | 344 kts | 210° |
| 2026-05-07 19:03 | 47.82425 | 12.65437 | 13442 ft | 351 kts | 199° |
| 2026-05-07 19:03 | 47.80051 | 12.64491 | 14163 ft | 355 kts | 197° |
| 2026-05-07 19:04 | 47.77641 | 12.63572 | 14802 ft | 360 kts | 197° |
| 2026-05-07 19:04 | 47.75201 | 12.62662 | 15395 ft | 364 kts | 197° |
| 2026-05-07 19:04 | 47.72720 | 12.61748 | 16026 ft | 369 kts | 196° |
| 2026-05-07 19:04 | 47.70213 | 12.60827 | 16636 ft | 374 kts | 196° |
| 2026-05-07 19:05 | 47.67679 | 12.59895 | 17265 ft | 378 kts | 197° |
| 2026-05-07 19:05 | 47.65107 | 12.58946 | 17892 ft | 383 kts | 197° |
| 2026-05-07 19:05 | 47.62506 | 12.57984 | 18502 ft | 388 kts | 197° |
| 2026-05-07 19:05 | 47.59879 | 12.57011 | 19071 ft | 391 kts | 197° |
| 2026-05-07 19:06 | 47.57226 | 12.56031 | 19677 ft | 394 kts | 197° |
| 2026-05-07 19:06 | 47.51858 | 12.54056 | 20899 ft | 400 kts | 197° |
| 2026-05-07 19:06 | 47.49148 | 12.53062 | 21464 ft | 403 kts | 197° |
| 2026-05-07 19:07 | 47.46417 | 12.52057 | 22022 ft | 406 kts | 197° |
| 2026-05-07 19:07 | 47.43670 | 12.51048 | 22556 ft | 409 kts | 197° |
| 2026-05-07 19:07 | 47.40900 | 12.50034 | 23104 ft | 411 kts | 197° |
| 2026-05-07 19:07 | 47.38112 | 12.49019 | 23643 ft | 414 kts | 197° |
| 2026-05-07 19:08 | 47.35308 | 12.47999 | 24055 ft | 416 kts | 197° |
| 2026-05-07 19:08 | 47.32489 | 12.46972 | 24508 ft | 418 kts | 197° |
| 2026-05-07 19:08 | 47.29655 | 12.45940 | 24959 ft | 420 kts | 197° |
| 2026-05-07 19:08 | 47.26815 | 12.44908 | 25401 ft | 422 kts | 197° |
| 2026-05-07 19:09 | 47.23947 | 12.43864 | 25853 ft | 425 kts | 197° |
| 2026-05-07 19:09 | 47.21071 | 12.42819 | 26319 ft | 427 kts | 197° |
| 2026-05-07 19:09 | 47.18178 | 12.41766 | 26766 ft | 429 kts | 197° |
| 2026-05-07 19:09 | 47.15275 | 12.40708 | 27179 ft | 431 kts | 197° |
| 2026-05-07 19:10 | 47.12353 | 12.39641 | 27599 ft | 433 kts | 198° |
| 2026-05-07 19:10 | 47.09422 | 12.38575 | 27973 ft | 436 kts | 198° |
| 2026-05-07 19:10 | 47.06470 | 12.37511 | 28396 ft | 437 kts | 198° |
| 2026-05-07 19:10 | 47.03510 | 12.36450 | 28788 ft | 439 kts | 198° |
| 2026-05-07 19:11 | 47.00535 | 12.35383 | 29180 ft | 441 kts | 198° |
| 2026-05-07 19:11 | 46.97549 | 12.34314 | 29583 ft | 443 kts | 198° |
| 2026-05-07 19:11 | 46.94547 | 12.33241 | 29961 ft | 445 kts | 198° |
| 2026-05-07 19:11 | 46.91529 | 12.32156 | 30290 ft | 447 kts | 199° |
| 2026-05-07 19:12 | 46.88511 | 12.31071 | 30637 ft | 447 kts | 199° |
| 2026-05-07 19:12 | 46.85499 | 12.29991 | 31058 ft | 446 kts | 199° |
| 2026-05-07 19:12 | 46.82521 | 12.28785 | 31467 ft | 440 kts | 205° |
| 2026-05-07 19:12 | 46.79805 | 12.26962 | 31902 ft | 432 kts | 215° |
| 2026-05-07 19:13 | 46.77327 | 12.24464 | 32327 ft | 425 kts | 224° |
| 2026-05-07 19:13 | 46.75120 | 12.21707 | 32577 ft | 422 kts | 225° |
| 2026-05-07 19:13 | 46.72897 | 12.18921 | 32841 ft | 421 kts | 225° |
| 2026-05-07 19:13 | 46.70674 | 12.16141 | 33057 ft | 421 kts | 225° |
| 2026-05-07 19:14 | 46.66265 | 12.10646 | 33100 ft | 415 kts | 225° |
| 2026-05-07 19:14 | 46.61885 | 12.05196 | 33092 ft | 414 kts | 225° |
| 2026-05-07 19:15 | 46.57514 | 11.99778 | 33068 ft | 413 kts | 225° |
| 2026-05-07 19:15 | 46.53146 | 11.94369 | 33054 ft | 412 kts | 225° |
| 2026-05-07 19:16 | 46.49491 | 11.89854 | 33039 ft | 412 kts | 225° |
| 2026-05-07 19:16 | 46.45023 | 11.84638 | 33023 ft | 417 kts | 217° |
| 2026-05-07 19:17 | 46.39557 | 11.81521 | 33019 ft | 433 kts | 197° |
| 2026-05-07 19:17 | 46.36520 | 11.81170 | 33016 ft | 443 kts | 186° |
| 2026-05-07 19:17 | 46.33439 | 11.81212 | 33018 ft | 443 kts | 186° |
| 2026-05-07 19:18 | 46.27270 | 11.81260 | 33021 ft | 443 kts | 187° |
| 2026-05-07 19:18 | 46.21147 | 11.81271 | 33020 ft | 443 kts | 187° |
| 2026-05-07 19:19 | 46.14995 | 11.81288 | 33020 ft | 443 kts | 187° |
| 2026-05-07 19:19 | 46.08831 | 11.81329 | 33031 ft | 442 kts | 186° |
| 2026-05-07 19:20 | 46.02683 | 11.81372 | 33034 ft | 442 kts | 187° |
| 2026-05-07 19:20 | 45.96539 | 11.81407 | 33027 ft | 441 kts | 186° |
| 2026-05-07 19:21 | 45.90401 | 11.81439 | 33024 ft | 441 kts | 187° |
| 2026-05-07 19:21 | 45.84272 | 11.81462 | 33012 ft | 440 kts | 187° |
| 2026-05-07 19:22 | 45.78144 | 11.81489 | 33019 ft | 440 kts | 187° |
| 2026-05-07 19:22 | 45.72015 | 11.81528 | 33015 ft | 440 kts | 187° |
| 2026-05-07 19:23 | 45.65904 | 11.81558 | 33018 ft | 439 kts | 187° |
| 2026-05-07 19:23 | 45.59798 | 11.81584 | 33008 ft | 439 kts | 187° |
| 2026-05-07 19:24 | 45.53688 | 11.81611 | 33008 ft | 439 kts | 187° |
| 2026-05-07 19:24 | 45.47585 | 11.81643 | 33000 ft | 438 kts | 187° |
| 2026-05-07 19:25 | 45.41492 | 11.81675 | 33006 ft | 438 kts | 187° |
| 2026-05-07 19:25 | 45.35397 | 11.81702 | 33011 ft | 438 kts | 187° |
| 2026-05-07 19:26 | 45.29356 | 11.81731 | 33006 ft | 437 kts | 187° |
| 2026-05-07 19:26 | 45.23267 | 11.81763 | 33007 ft | 437 kts | 187° |
| 2026-05-07 19:27 | 45.17189 | 11.81796 | 33007 ft | 437 kts | 187° |
| 2026-05-07 19:27 | 45.11120 | 11.81828 | 33004 ft | 436 kts | 187° |
| 2026-05-07 19:28 | 45.05041 | 11.81856 | 33006 ft | 436 kts | 187° |
| 2026-05-07 19:28 | 44.98975 | 11.81881 | 33010 ft | 436 kts | 187° |
| 2026-05-07 19:29 | 44.92915 | 11.81914 | 33011 ft | 435 kts | 187° |
| 2026-05-07 19:29 | 44.86862 | 11.81948 | 33011 ft | 435 kts | 187° |
| 2026-05-07 19:30 | 44.80806 | 11.81974 | 33014 ft | 435 kts | 187° |
| 2026-05-07 19:30 | 44.74757 | 11.82006 | 33009 ft | 435 kts | 187° |
| 2026-05-07 19:31 | 44.68711 | 11.82036 | 33004 ft | 435 kts | 187° |
| 2026-05-07 19:31 | 44.62658 | 11.82062 | 33005 ft | 435 kts | 187° |
| 2026-05-07 19:32 | 44.56612 | 11.82094 | 33014 ft | 434 kts | 188° |
| 2026-05-07 19:32 | 44.50563 | 11.82124 | 33010 ft | 435 kts | 188° |
| 2026-05-07 19:33 | 44.44520 | 11.82155 | 33007 ft | 434 kts | 188° |
| 2026-05-07 19:33 | 44.38474 | 11.82180 | 32999 ft | 434 kts | 188° |
| 2026-05-07 19:34 | 44.32437 | 11.82214 | 32998 ft | 434 kts | 188° |
| 2026-05-07 19:34 | 44.26399 | 11.82243 | 32991 ft | 433 kts | 188° |
| 2026-05-07 19:35 | 44.20369 | 11.82263 | 32991 ft | 433 kts | 188° |
| 2026-05-07 19:35 | 44.14342 | 11.82284 | 32986 ft | 433 kts | 188° |
| 2026-05-07 19:36 | 44.08305 | 11.82314 | 32998 ft | 434 kts | 188° |
| 2026-05-07 19:36 | 44.02268 | 11.82349 | 33002 ft | 433 kts | 188° |
| 2026-05-07 19:37 | 43.96244 | 11.82382 | 33008 ft | 433 kts | 188° |
| 2026-05-07 19:37 | 43.90227 | 11.82407 | 33019 ft | 432 kts | 188° |
| 2026-05-07 19:38 | 43.84235 | 11.82348 | 33011 ft | 426 kts | 194° |
| 2026-05-07 19:38 | 43.81364 | 11.81630 | 32829 ft | 415 kts | 204° |
| 2026-05-07 19:38 | 43.78721 | 11.80175 | 32561 ft | 404 kts | 214° |
| 2026-05-07 19:39 | 43.76388 | 11.78088 | 32297 ft | 397 kts | 224° |
| 2026-05-07 19:39 | 43.74404 | 11.75484 | 32036 ft | 392 kts | 233° |
| 2026-05-07 19:39 | 43.72810 | 11.72507 | 31784 ft | 390 kts | 240° |
| 2026-05-07 19:39 | 43.71309 | 11.69370 | 31529 ft | 392 kts | 240° |
| 2026-05-07 19:40 | 43.69796 | 11.66229 | 31278 ft | 394 kts | 239° |
| 2026-05-07 19:40 | 43.68270 | 11.63073 | 31024 ft | 395 kts | 239° |
| 2026-05-07 19:40 | 43.66742 | 11.59918 | 30778 ft | 397 kts | 239° |
| 2026-05-07 19:40 | 43.65205 | 11.56749 | 30529 ft | 398 kts | 239° |
| 2026-05-07 19:41 | 43.63661 | 11.53567 | 30286 ft | 399 kts | 239° |
| 2026-05-07 19:41 | 43.62115 | 11.50378 | 29990 ft | 400 kts | 239° |
| 2026-05-07 19:41 | 43.60562 | 11.47178 | 28882 ft | 404 kts | 239° |
| 2026-05-07 19:41 | 43.58987 | 11.43933 | 27997 ft | 405 kts | 239° |
| 2026-05-07 19:42 | 43.57444 | 11.40735 | 27427 ft | 398 kts | 241° |
| 2026-05-07 19:42 | 43.56209 | 11.37363 | 26757 ft | 392 kts | 250° |
| 2026-05-07 19:42 | 43.55435 | 11.33784 | 26089 ft | 389 kts | 259° |
| 2026-05-07 19:42 | 43.55129 | 11.30098 | 25437 ft | 386 kts | 268° |
| 2026-05-07 19:43 | 43.55086 | 11.26413 | 24802 ft | 384 kts | 268° |
| 2026-05-07 19:43 | 43.55038 | 11.22732 | 24163 ft | 383 kts | 268° |
| 2026-05-07 19:43 | 43.54983 | 11.19063 | 23524 ft | 382 kts | 268° |
| 2026-05-07 19:43 | 43.54922 | 11.15412 | 22827 ft | 381 kts | 268° |
| 2026-05-07 19:44 | 43.54856 | 11.11775 | 22213 ft | 378 kts | 268° |
| 2026-05-07 19:44 | 43.54788 | 11.08173 | 21636 ft | 375 kts | 268° |
| 2026-05-07 19:44 | 43.54549 | 11.04608 | 21059 ft | 373 kts | 259° |
| 2026-05-07 19:44 | 43.53885 | 11.01181 | 20518 ft | 370 kts | 250° |
| 2026-05-07 19:45 | 43.52979 | 10.97869 | 19979 ft | 367 kts | 249° |
| 2026-05-07 19:45 | 43.52089 | 10.94595 | 19459 ft | 364 kts | 249° |
| 2026-05-07 19:45 | 43.51208 | 10.91346 | 18949 ft | 360 kts | 249° |
| 2026-05-07 19:45 | 43.50338 | 10.88131 | 18437 ft | 357 kts | 249° |
| 2026-05-07 19:46 | 43.49473 | 10.84928 | 17878 ft | 355 kts | 249° |
| 2026-05-07 19:46 | 43.48616 | 10.81763 | 17356 ft | 351 kts | 249° |
| 2026-05-07 19:46 | 43.47646 | 10.78690 | 16824 ft | 349 kts | 241° |
| 2026-05-07 19:46 | 43.46269 | 10.75960 | 16288 ft | 347 kts | 229° |
| 2026-05-07 19:47 | 43.44527 | 10.73667 | 15739 ft | 346 kts | 218° |
| 2026-05-07 19:47 | 43.42490 | 10.71904 | 15147 ft | 346 kts | 207° |
| 2026-05-07 19:47 | 43.40245 | 10.70716 | 14554 ft | 346 kts | 199° |
| 2026-05-07 19:47 | 43.37956 | 10.69673 | 13964 ft | 346 kts | 199° |
| 2026-05-07 19:48 | 43.35671 | 10.68624 | 13315 ft | 347 kts | 199° |
| 2026-05-07 19:48 | 43.33408 | 10.67569 | 12966 ft | 338 kts | 200° |
| 2026-05-07 19:48 | 43.31407 | 10.66040 | 12823 ft | 323 kts | 219° |
| 2026-05-07 19:48 | 43.29960 | 10.63780 | 12686 ft | 311 kts | 238° |
| 2026-05-07 19:49 | 43.29158 | 10.61089 | 12556 ft | 301 kts | 257° |
| 2026-05-07 19:49 | 43.29014 | 10.58282 | 12406 ft | 293 kts | 275° |
| 2026-05-07 19:49 | 43.29311 | 10.55544 | 12266 ft | 287 kts | 278° |
| 2026-05-07 19:49 | 43.29670 | 10.52848 | 12191 ft | 287 kts | 284° |
| 2026-05-07 19:50 | 43.30415 | 10.50302 | 11995 ft | 289 kts | 297° |
| 2026-05-07 19:50 | 43.31583 | 10.48001 | 11473 ft | 294 kts | 307° |
| 2026-05-07 19:50 | 43.32814 | 10.45791 | 11140 ft | 290 kts | 306° |
| 2026-05-07 19:50 | 43.34059 | 10.43648 | 10840 ft | 282 kts | 315° |
| 2026-05-07 19:51 | 43.35701 | 10.42350 | 10678 ft | 270 kts | 346° |
| 2026-05-07 19:51 | 43.37535 | 10.42379 | 10390 ft | 265 kts | 18° |
| 2026-05-07 19:51 | 43.39126 | 10.43616 | 10029 ft | 264 kts | 37° |
| 2026-05-07 19:51 | 43.40589 | 10.45129 | 9662 ft | 262 kts | 37° |
| 2026-05-07 19:52 | 43.42034 | 10.46626 | 9470 ft | 258 kts | 37° |
| 2026-05-07 19:52 | 43.43464 | 10.48109 | 9332 ft | 257 kts | 37° |
| 2026-05-07 19:52 | 43.44893 | 10.49588 | 9202 ft | 257 kts | 37° |
| 2026-05-07 19:52 | 43.46319 | 10.51057 | 9070 ft | 256 kts | 36° |
| 2026-05-07 19:53 | 43.47919 | 10.52066 | 8926 ft | 254 kts | 8° |
| 2026-05-07 19:53 | 43.49632 | 10.51862 | 8795 ft | 252 kts | 338° |
| 2026-05-07 19:53 | 43.51057 | 10.50517 | 8654 ft | 247 kts | 310° |
| 2026-05-07 19:53 | 43.51887 | 10.48516 | 8522 ft | 238 kts | 285° |
| 2026-05-07 19:54 | 43.52031 | 10.46301 | 8392 ft | 229 kts | 261° |
| 2026-05-07 19:54 | 43.51531 | 10.44251 | 8266 ft | 226 kts | 241° |
| 2026-05-07 19:54 | 43.50802 | 10.42328 | 8134 ft | 227 kts | 242° |
| 2026-05-07 19:54 | 43.50061 | 10.40362 | 8013 ft | 235 kts | 242° |
| 2026-05-07 19:55 | 43.49305 | 10.38352 | 7883 ft | 236 kts | 242° |
| 2026-05-07 19:55 | 43.48459 | 10.36420 | 7760 ft | 236 kts | 230° |
| 2026-05-07 19:55 | 43.47268 | 10.34881 | 7633 ft | 235 kts | 216° |
| 2026-05-07 19:55 | 43.45954 | 10.33541 | 7507 ft | 235 kts | 216° |
| 2026-05-07 19:56 | 43.44642 | 10.32198 | 7385 ft | 234 kts | 216° |
| 2026-05-07 19:56 | 43.43337 | 10.30862 | 7260 ft | 234 kts | 216° |
| 2026-05-07 19:56 | 43.42027 | 10.29519 | 7029 ft | 235 kts | 216° |
| 2026-05-07 19:56 | 43.40720 | 10.28180 | 6809 ft | 233 kts | 216° |
| 2026-05-07 19:57 | 43.39422 | 10.26851 | 6642 ft | 232 kts | 216° |
| 2026-05-07 19:57 | 43.38129 | 10.25526 | 6456 ft | 231 kts | 216° |
| 2026-05-07 19:57 | 43.36889 | 10.24118 | 6230 ft | 231 kts | 230° |
| 2026-05-07 19:57 | 43.36254 | 10.22118 | 6060 ft | 232 kts | 264° |
| 2026-05-07 19:58 | 43.36525 | 10.19960 | 5860 ft | 233 kts | 298° |
| 2026-05-07 19:58 | 43.37484 | 10.18166 | 5649 ft | 234 kts | 308° |
| 2026-05-07 19:58 | 43.38474 | 10.16396 | 5443 ft | 233 kts | 307° |
| 2026-05-07 19:58 | 43.39445 | 10.14608 | 5237 ft | 233 kts | 308° |
| 2026-05-07 19:59 | 43.40692 | 10.13239 | 5029 ft | 231 kts | 340° |
| 2026-05-07 19:59 | 43.42239 | 10.13046 | 4830 ft | 222 kts | 14° |
| 2026-05-07 19:59 | 43.43583 | 10.13981 | 4648 ft | 217 kts | 37° |
| 2026-05-07 19:59 | 43.44792 | 10.15214 | 4461 ft | 216 kts | 38° |
| 2026-05-07 20:00 | 43.45588 | 10.16036 | 4341 ft | 216 kts | 38° |
| 2026-05-07 20:00 | 43.47199 | 10.17686 | 4114 ft | 215 kts | 37° |
| 2026-05-07 20:00 | 43.47995 | 10.18499 | 4051 ft | 215 kts | 37° |
| 2026-05-07 20:00 | 43.49190 | 10.19721 | 4015 ft | 214 kts | 37° |
| 2026-05-07 20:01 | 43.50374 | 10.20932 | 4006 ft | 206 kts | 37° |
| 2026-05-07 20:01 | 43.51498 | 10.22082 | 3830 ft | 198 kts | 37° |
| 2026-05-07 20:01 | 43.52595 | 10.23205 | 3589 ft | 195 kts | 37° |
| 2026-05-07 20:01 | 43.53681 | 10.24318 | 3353 ft | 194 kts | 37° |
| 2026-05-07 20:02 | 43.54757 | 10.25421 | 3098 ft | 193 kts | 37° |
| 2026-05-07 20:02 | 43.55824 | 10.26515 | 2869 ft | 187 kts | 36° |
| 2026-05-07 20:02 | 43.56860 | 10.27578 | 2590 ft | 184 kts | 36° |
| 2026-05-07 20:02 | 43.57869 | 10.28613 | 2353 ft | 178 kts | 36° |
| 2026-05-07 20:03 | 43.58852 | 10.29622 | 2115 ft | 175 kts | 36° |
| 2026-05-07 20:03 | 43.59830 | 10.30626 | 1863 ft | 171 kts | 36° |
| 2026-05-07 20:03 | 43.60758 | 10.31581 | 1649 ft | 161 kts | 35° |
| 2026-05-07 20:03 | 43.61597 | 10.32445 | 1444 ft | 141 kts | 35° |
| 2026-05-07 20:04 | 43.62360 | 10.33228 | 1262 ft | 134 kts | 35° |
| 2026-05-07 20:04 | 43.63103 | 10.33993 | 1076 ft | 132 kts | 34° |
| 2026-05-07 20:04 | 43.63828 | 10.34739 | 911 ft | 128 kts | 35° |
| 2026-05-07 20:04 | 43.64554 | 10.35483 | 770 ft | 132 kts | 35° |
| 2026-05-07 20:05 | 43.65284 | 10.36233 | 559 ft | 129 kts | 34° |
| 2026-05-07 20:05 | 43.65999 | 10.36966 | 391 ft | 128 kts | 35° |
| 2026-05-07 20:05 | 43.66717 | 10.37713 | 237 ft | 129 kts | 35° |
| 2026-05-07 20:05 | 43.67439 | 10.38457 | 69 ft | 130 kts | 35° |
| 2026-05-07 20:06 | 43.68121 | 10.39159 | 17 ft | 107 kts | 37° |
| 2026-05-07 20:06 | 43.68581 | 10.39634 | 18 ft | 61 kts | 37° |
| 2026-05-07 20:06 | 43.68923 | 10.39987 | 19 ft | 58 kts | 37° |
| 2026-05-07 20:06 | 43.69159 | 10.40233 | 20 ft | 23 kts | 37° |
| 2026-05-07 20:07 | 43.69254 | 10.40309 | 20 ft | 10 kts | 5° |
| 2026-05-07 20:07 | 43.69302 | 10.40255 | 18 ft | 11 kts | 307° |
| 2026-05-07 20:07 | 43.69350 | 10.40167 | 22 ft | 11 kts | 307° |
| 2026-05-07 20:07 | 43.69402 | 10.40103 | 22 ft | 9 kts | 344° |
| 2026-05-07 20:08 | 43.69484 | 10.40086 | 17 ft | 10 kts | 352° |
| 2026-05-07 20:08 | 43.69550 | 10.40074 | 16 ft | 9 kts | 352° |
| 2026-05-07 20:08 | 43.69608 | 10.40063 | 15 ft | 8 kts | 352° |
| 2026-05-07 20:08 | 43.69659 | 10.40055 | 15 ft | 8 kts | 359° |
| 2026-05-07 20:09 | 43.69684 | 10.40055 | 15 ft | 1 kts | 319° |
| 2026-05-07 20:09 | 43.69688 | 10.40031 | 15 ft | 4 kts | 292° |
| 2026-05-07 20:09 | 43.69718 | 10.40025 | 15 ft | 4 kts | 8° |
| 2026-05-07 20:10 | 43.69747 | 10.40031 | 15 ft | 0 kts | 8° |